sensor_id;sensor_type;location;lat;lon;timestamp;P1;durP1;ratioP1;P2;durP2;ratioP2
990;SDS011;484;48.128;11.602;2022-08-19T00:00:09;4.87;;;3.80;;
990;SDS011;484;48.128;11.602;2022-08-19T00:03:00;3.93;;;3.53;;
990;SDS011;484;48.128;11.602;2022-08-19T00:05:46;3.80;;;3.50;;
990;SDS011;484;48.128;11.602;2022-08-19T00:08:31;3.30;;;3.07;;
990;SDS011;484;48.128;11.602;2022-08-19T00:11:17;4.00;;;3.70;;
990;SDS011;484;48.128;11.602;2022-08-19T00:14:03;3.63;;;3.33;;
990;SDS011;484;48.128;11.602;2022-08-19T00:16:49;4.73;;;4.43;;
990;SDS011;484;48.128;11.602;2022-08-19T00:19:39;3.77;;;3.57;;
990;SDS011;484;48.128;11.602;2022-08-19T00:22:25;4.27;;;3.87;;
990;SDS011;484;48.128;11.602;2022-08-19T00:25:12;3.60;;;3.40;;
990;SDS011;484;48.128;11.602;2022-08-19T00:27:58;3.73;;;3.53;;
990;SDS011;484;48.128;11.602;2022-08-19T00:30:43;4.50;;;4.10;;
990;SDS011;484;48.128;11.602;2022-08-19T00:33:29;4.13;;;3.30;;
990;SDS011;484;48.128;11.602;2022-08-19T00:36:19;4.93;;;4.40;;
990;SDS011;484;48.128;11.602;2022-08-19T00:39:04;4.50;;;4.10;;
990;SDS011;484;48.128;11.602;2022-08-19T00:41:50;4.57;;;4.13;;
990;SDS011;484;48.128;11.602;2022-08-19T00:44:36;4.20;;;3.90;;
990;SDS011;484;48.128;11.602;2022-08-19T00:47:21;4.10;;;3.73;;
990;SDS011;484;48.128;11.602;2022-08-19T00:50:07;5.03;;;4.63;;
990;SDS011;484;48.128;11.602;2022-08-19T00:52:55;4.57;;;4.17;;
990;SDS011;484;48.128;11.602;2022-08-19T00:55:42;4.63;;;3.87;;
990;SDS011;484;48.128;11.602;2022-08-19T00:58:30;5.97;;;3.73;;
990;SDS011;484;48.128;11.602;2022-08-19T01:01:17;4.40;;;4.10;;
990;SDS011;484;48.128;11.602;2022-08-19T01:04:03;4.40;;;4.00;;
990;SDS011;484;48.128;11.602;2022-08-19T01:06:48;4.93;;;4.63;;
990;SDS011;484;48.128;11.602;2022-08-19T01:09:35;5.00;;;4.50;;
990;SDS011;484;48.128;11.602;2022-08-19T01:12:20;4.90;;;4.50;;
990;SDS011;484;48.128;11.602;2022-08-19T01:15:07;4.90;;;4.37;;
990;SDS011;484;48.128;11.602;2022-08-19T01:17:54;5.40;;;4.90;;
990;SDS011;484;48.128;11.602;2022-08-19T01:20:40;5.27;;;4.87;;
990;SDS011;484;48.128;11.602;2022-08-19T01:23:27;5.33;;;4.87;;
990;SDS011;484;48.128;11.602;2022-08-19T01:26:27;5.00;;;4.53;;
990;SDS011;484;48.128;11.602;2022-08-19T01:29:12;4.80;;;4.40;;
990;SDS011;484;48.128;11.602;2022-08-19T01:31:58;4.93;;;4.53;;
990;SDS011;484;48.128;11.602;2022-08-19T01:34:43;5.63;;;5.13;;
990;SDS011;484;48.128;11.602;2022-08-19T01:37:40;5.27;;;4.87;;
990;SDS011;484;48.128;11.602;2022-08-19T01:40:29;5.63;;;5.13;;
990;SDS011;484;48.128;11.602;2022-08-19T01:43:16;5.20;;;4.80;;
990;SDS011;484;48.128;11.602;2022-08-19T01:46:02;5.90;;;5.40;;
990;SDS011;484;48.128;11.602;2022-08-19T01:48:48;6.33;;;5.80;;
990;SDS011;484;48.128;11.602;2022-08-19T01:51:34;6.13;;;5.53;;
990;SDS011;484;48.128;11.602;2022-08-19T01:54:19;5.83;;;5.23;;
990;SDS011;484;48.128;11.602;2022-08-19T01:57:08;5.43;;;4.93;;
990;SDS011;484;48.128;11.602;2022-08-19T01:59:55;5.47;;;4.93;;
990;SDS011;484;48.128;11.602;2022-08-19T02:02:41;5.50;;;5.00;;
990;SDS011;484;48.128;11.602;2022-08-19T02:05:27;5.20;;;4.70;;
990;SDS011;484;48.128;11.602;2022-08-19T02:08:13;5.93;;;5.27;;
990;SDS011;484;48.128;11.602;2022-08-19T02:10:58;5.03;;;4.70;;
990;SDS011;484;48.128;11.602;2022-08-19T02:13:45;5.60;;;5.13;;
990;SDS011;484;48.128;11.602;2022-08-19T02:16:30;5.33;;;4.40;;
990;SDS011;484;48.128;11.602;2022-08-19T02:19:15;5.57;;;4.97;;
990;SDS011;484;48.128;11.602;2022-08-19T02:22:01;4.60;;;4.20;;
990;SDS011;484;48.128;11.602;2022-08-19T02:24:46;5.67;;;4.17;;
990;SDS011;484;48.128;11.602;2022-08-19T02:27:32;5.50;;;5.00;;
990;SDS011;484;48.128;11.602;2022-08-19T02:30:19;5.20;;;4.70;;
990;SDS011;484;48.128;11.602;2022-08-19T02:33:05;3.97;;;3.57;;
990;SDS011;484;48.128;11.602;2022-08-19T02:35:50;4.47;;;4.07;;
990;SDS011;484;48.128;11.602;2022-08-19T02:38:36;3.40;;;3.10;;
990;SDS011;484;48.128;11.602;2022-08-19T02:41:23;5.43;;;4.00;;
990;SDS011;484;48.128;11.602;2022-08-19T02:44:10;5.60;;;4.37;;
990;SDS011;484;48.128;11.602;2022-08-19T02:46:57;3.80;;;3.50;;
990;SDS011;484;48.128;11.602;2022-08-19T02:49:42;4.30;;;3.90;;
990;SDS011;484;48.128;11.602;2022-08-19T02:52:28;4.50;;;4.10;;
990;SDS011;484;48.128;11.602;2022-08-19T02:55:13;4.40;;;4.00;;
990;SDS011;484;48.128;11.602;2022-08-19T02:57:59;4.73;;;4.33;;
990;SDS011;484;48.128;11.602;2022-08-19T03:00:45;3.10;;;2.90;;
990;SDS011;484;48.128;11.602;2022-08-19T03:03:33;6.10;;;3.17;;
990;SDS011;484;48.128;11.602;2022-08-19T03:06:19;5.97;;;4.80;;
990;SDS011;484;48.128;11.602;2022-08-19T03:09:05;3.17;;;2.97;;
990;SDS011;484;48.128;11.602;2022-08-19T03:11:50;3.73;;;3.43;;
990;SDS011;484;48.128;11.602;2022-08-19T03:14:36;3.67;;;3.37;;
990;SDS011;484;48.128;11.602;2022-08-19T03:17:21;4.47;;;4.17;;
990;SDS011;484;48.128;11.602;2022-08-19T03:20:08;4.03;;;3.73;;
990;SDS011;484;48.128;11.602;2022-08-19T03:22:54;3.97;;;3.67;;
990;SDS011;484;48.128;11.602;2022-08-19T03:25:41;3.37;;;3.17;;
990;SDS011;484;48.128;11.602;2022-08-19T03:28:27;4.00;;;3.70;;
990;SDS011;484;48.128;11.602;2022-08-19T03:31:13;3.83;;;3.53;;
990;SDS011;484;48.128;11.602;2022-08-19T03:33:59;4.70;;;4.30;;
990;SDS011;484;48.128;11.602;2022-08-19T03:36:46;4.10;;;3.80;;
990;SDS011;484;48.128;11.602;2022-08-19T03:39:32;4.43;;;4.10;;
990;SDS011;484;48.128;11.602;2022-08-19T03:42:17;4.10;;;3.80;;
990;SDS011;484;48.128;11.602;2022-08-19T03:45:03;3.83;;;3.53;;
990;SDS011;484;48.128;11.602;2022-08-19T03:47:50;3.60;;;3.30;;
990;SDS011;484;48.128;11.602;2022-08-19T03:50:38;4.50;;;4.10;;
990;SDS011;484;48.128;11.602;2022-08-19T03:53:25;3.40;;;3.07;;
990;SDS011;484;48.128;11.602;2022-08-19T03:56:11;3.40;;;3.10;;
990;SDS011;484;48.128;11.602;2022-08-19T03:58:57;3.70;;;3.40;;
990;SDS011;484;48.128;11.602;2022-08-19T04:01:44;3.00;;;2.80;;
990;SDS011;484;48.128;11.602;2022-08-19T04:04:29;3.20;;;3.00;;
990;SDS011;484;48.128;11.602;2022-08-19T04:07:15;4.40;;;4.10;;
990;SDS011;484;48.128;11.602;2022-08-19T04:10:03;2.97;;;2.77;;
990;SDS011;484;48.128;11.602;2022-08-19T04:12:49;2.83;;;2.63;;
990;SDS011;484;48.128;11.602;2022-08-19T04:15:38;3.83;;;3.03;;
990;SDS011;484;48.128;11.602;2022-08-19T04:18:25;3.43;;;3.17;;
990;SDS011;484;48.128;11.602;2022-08-19T04:21:14;4.37;;;3.43;;
990;SDS011;484;48.128;11.602;2022-08-19T04:24:01;4.70;;;4.30;;
990;SDS011;484;48.128;11.602;2022-08-19T04:26:48;3.00;;;2.73;;
990;SDS011;484;48.128;11.602;2022-08-19T04:29:33;4.67;;;4.20;;
990;SDS011;484;48.128;11.602;2022-08-19T04:32:19;4.67;;;4.33;;
990;SDS011;484;48.128;11.602;2022-08-19T04:35:04;5.47;;;4.43;;
990;SDS011;484;48.128;11.602;2022-08-19T04:37:50;4.13;;;3.73;;
990;SDS011;484;48.128;11.602;2022-08-19T04:40:39;5.20;;;4.73;;
990;SDS011;484;48.128;11.602;2022-08-19T04:43:44;5.70;;;4.97;;
990;SDS011;484;48.128;11.602;2022-08-19T04:46:32;4.37;;;3.83;;
990;SDS011;484;48.128;11.602;2022-08-19T04:49:19;5.10;;;4.70;;
990;SDS011;484;48.128;11.602;2022-08-19T04:52:05;5.73;;;4.10;;
990;SDS011;484;48.128;11.602;2022-08-19T04:54:51;5.13;;;4.70;;
990;SDS011;484;48.128;11.602;2022-08-19T04:57:39;4.43;;;4.03;;
990;SDS011;484;48.128;11.602;2022-08-19T05:00:25;4.27;;;3.97;;
990;SDS011;484;48.128;11.602;2022-08-19T05:03:11;5.73;;;5.23;;
990;SDS011;484;48.128;11.602;2022-08-19T05:05:56;4.63;;;4.27;;
990;SDS011;484;48.128;11.602;2022-08-19T05:08:42;6.13;;;5.53;;
990;SDS011;484;48.128;11.602;2022-08-19T05:11:29;5.80;;;5.30;;
990;SDS011;484;48.128;11.602;2022-08-19T05:14:16;4.70;;;4.30;;
990;SDS011;484;48.128;11.602;2022-08-19T05:17:04;5.23;;;3.80;;
990;SDS011;484;48.128;11.602;2022-08-19T05:19:49;5.30;;;4.80;;
990;SDS011;484;48.128;11.602;2022-08-19T05:22:52;5.57;;;5.07;;
990;SDS011;484;48.128;11.602;2022-08-19T05:25:38;4.90;;;4.50;;
990;SDS011;484;48.128;11.602;2022-08-19T05:28:24;5.13;;;4.60;;
990;SDS011;484;48.128;11.602;2022-08-19T05:31:10;5.17;;;4.60;;
990;SDS011;484;48.128;11.602;2022-08-19T05:33:59;5.60;;;3.53;;
990;SDS011;484;48.128;11.602;2022-08-19T05:36:44;5.70;;;4.90;;
990;SDS011;484;48.128;11.602;2022-08-19T05:39:30;4.07;;;3.77;;
990;SDS011;484;48.128;11.602;2022-08-19T05:42:17;4.33;;;3.80;;
990;SDS011;484;48.128;11.602;2022-08-19T05:45:04;5.47;;;4.37;;
990;SDS011;484;48.128;11.602;2022-08-19T05:47:50;4.10;;;3.80;;
990;SDS011;484;48.128;11.602;2022-08-19T05:50:37;4.77;;;4.37;;
990;SDS011;484;48.128;11.602;2022-08-19T05:53:22;4.50;;;3.90;;
990;SDS011;484;48.128;11.602;2022-08-19T05:56:08;3.80;;;3.50;;
990;SDS011;484;48.128;11.602;2022-08-19T05:58:55;6.17;;;4.87;;
990;SDS011;484;48.128;11.602;2022-08-19T06:01:41;5.57;;;5.07;;
990;SDS011;484;48.128;11.602;2022-08-19T06:04:28;5.40;;;4.90;;
990;SDS011;484;48.128;11.602;2022-08-19T06:07:14;5.70;;;5.10;;
990;SDS011;484;48.128;11.602;2022-08-19T06:10:00;5.30;;;4.60;;
990;SDS011;484;48.128;11.602;2022-08-19T06:12:46;5.07;;;4.57;;
990;SDS011;484;48.128;11.602;2022-08-19T06:15:31;5.57;;;5.00;;
990;SDS011;484;48.128;11.602;2022-08-19T06:18:16;4.97;;;4.57;;
990;SDS011;484;48.128;11.602;2022-08-19T06:21:03;5.50;;;5.10;;
990;SDS011;484;48.128;11.602;2022-08-19T06:23:50;9.27;;;6.93;;
990;SDS011;484;48.128;11.602;2022-08-19T06:26:37;5.90;;;4.97;;
990;SDS011;484;48.128;11.602;2022-08-19T06:29:25;8.60;;;7.30;;
990;SDS011;484;48.128;11.602;2022-08-19T06:32:11;7.60;;;6.80;;
990;SDS011;484;48.128;11.602;2022-08-19T06:34:56;7.13;;;6.43;;
990;SDS011;484;48.128;11.602;2022-08-19T06:37:42;7.57;;;6.80;;
990;SDS011;484;48.128;11.602;2022-08-19T06:40:29;8.57;;;6.80;;
990;SDS011;484;48.128;11.602;2022-08-19T06:43:14;8.57;;;6.50;;
990;SDS011;484;48.128;11.602;2022-08-19T06:45:59;7.30;;;6.60;;
990;SDS011;484;48.128;11.602;2022-08-19T06:48:45;8.80;;;8.00;;
990;SDS011;484;48.128;11.602;2022-08-19T06:51:30;6.90;;;6.30;;
990;SDS011;484;48.128;11.602;2022-08-19T06:54:16;8.03;;;7.23;;
990;SDS011;484;48.128;11.602;2022-08-19T06:57:04;7.13;;;6.30;;
990;SDS011;484;48.128;11.602;2022-08-19T06:59:50;9.67;;;6.50;;
990;SDS011;484;48.128;11.602;2022-08-19T07:02:36;7.57;;;6.70;;
990;SDS011;484;48.128;11.602;2022-08-19T07:05:21;9.83;;;7.60;;
990;SDS011;484;48.128;11.602;2022-08-19T07:08:07;10.30;;;7.67;;
990;SDS011;484;48.128;11.602;2022-08-19T07:10:52;8.80;;;7.30;;
990;SDS011;484;48.128;11.602;2022-08-19T07:13:39;8.30;;;7.27;;
990;SDS011;484;48.128;11.602;2022-08-19T07:16:27;8.63;;;7.80;;
990;SDS011;484;48.128;11.602;2022-08-19T07:19:13;8.80;;;8.00;;
990;SDS011;484;48.128;11.602;2022-08-19T07:21:58;8.63;;;7.30;;
990;SDS011;484;48.128;11.602;2022-08-19T07:24:48;8.63;;;7.83;;
990;SDS011;484;48.128;11.602;2022-08-19T07:27:33;9.83;;;8.83;;
990;SDS011;484;48.128;11.602;2022-08-19T07:30:20;6.17;;;5.57;;
990;SDS011;484;48.128;11.602;2022-08-19T07:33:07;7.43;;;6.70;;
990;SDS011;484;48.128;11.602;2022-08-19T07:35:52;6.90;;;6.20;;
990;SDS011;484;48.128;11.602;2022-08-19T07:38:40;7.97;;;7.27;;
990;SDS011;484;48.128;11.602;2022-08-19T07:41:28;9.67;;;8.67;;
990;SDS011;484;48.128;11.602;2022-08-19T07:44:15;8.73;;;7.83;;
990;SDS011;484;48.128;11.602;2022-08-19T07:47:02;10.50;;;8.77;;
990;SDS011;484;48.128;11.602;2022-08-19T07:49:47;9.77;;;8.83;;
990;SDS011;484;48.128;11.602;2022-08-19T07:52:32;8.53;;;7.70;;
990;SDS011;484;48.128;11.602;2022-08-19T07:55:19;11.73;;;8.43;;
990;SDS011;484;48.128;11.602;2022-08-19T07:58:06;9.20;;;8.23;;
990;SDS011;484;48.128;11.602;2022-08-19T08:00:51;9.70;;;8.70;;
990;SDS011;484;48.128;11.602;2022-08-19T08:03:39;10.47;;;9.20;;
990;SDS011;484;48.128;11.602;2022-08-19T08:06:43;11.57;;;9.20;;
990;SDS011;484;48.128;11.602;2022-08-19T08:09:46;9.40;;;8.40;;
990;SDS011;484;48.128;11.602;2022-08-19T08:12:32;10.10;;;8.90;;
990;SDS011;484;48.128;11.602;2022-08-19T08:15:20;10.10;;;9.13;;
990;SDS011;484;48.128;11.602;2022-08-19T08:18:05;10.07;;;8.90;;
990;SDS011;484;48.128;11.602;2022-08-19T08:20:52;10.57;;;9.60;;
990;SDS011;484;48.128;11.602;2022-08-19T08:23:38;11.47;;;10.27;;
990;SDS011;484;48.128;11.602;2022-08-19T08:26:24;9.03;;;8.23;;
990;SDS011;484;48.128;11.602;2022-08-19T08:29:10;9.80;;;8.90;;
990;SDS011;484;48.128;11.602;2022-08-19T08:31:56;9.30;;;8.40;;
990;SDS011;484;48.128;11.602;2022-08-19T08:34:42;9.73;;;8.83;;
990;SDS011;484;48.128;11.602;2022-08-19T08:37:29;9.70;;;8.83;;
990;SDS011;484;48.128;11.602;2022-08-19T08:40:16;11.20;;;8.37;;
990;SDS011;484;48.128;11.602;2022-08-19T08:43:07;10.57;;;9.23;;
990;SDS011;484;48.128;11.602;2022-08-19T08:45:55;9.27;;;8.30;;
990;SDS011;484;48.128;11.602;2022-08-19T08:48:46;8.87;;;8.00;;
990;SDS011;484;48.128;11.602;2022-08-19T08:51:37;9.77;;;8.77;;
990;SDS011;484;48.128;11.602;2022-08-19T08:54:27;11.10;;;9.40;;
990;SDS011;484;48.128;11.602;2022-08-19T08:57:17;10.57;;;8.53;;
990;SDS011;484;48.128;11.602;2022-08-19T09:00:07;10.77;;;9.63;;
990;SDS011;484;48.128;11.602;2022-08-19T09:02:55;10.40;;;9.03;;
990;SDS011;484;48.128;11.602;2022-08-19T09:05:43;13.03;;;10.27;;
990;SDS011;484;48.128;11.602;2022-08-19T09:08:40;11.27;;;8.30;;
990;SDS011;484;48.128;11.602;2022-08-19T09:11:36;11.33;;;10.20;;
990;SDS011;484;48.128;11.602;2022-08-19T09:14:32;9.37;;;8.33;;
990;SDS011;484;48.128;11.602;2022-08-19T09:17:22;9.77;;;8.10;;
990;SDS011;484;48.128;11.602;2022-08-19T09:20:14;10.93;;;9.70;;
990;SDS011;484;48.128;11.602;2022-08-19T09:23:03;13.10;;;9.70;;
990;SDS011;484;48.128;11.602;2022-08-19T09:25:48;9.67;;;8.67;;
990;SDS011;484;48.128;11.602;2022-08-19T09:28:35;9.93;;;9.00;;
990;SDS011;484;48.128;11.602;2022-08-19T09:31:21;10.53;;;8.57;;
990;SDS011;484;48.128;11.602;2022-08-19T09:34:07;9.17;;;8.27;;
990;SDS011;484;48.128;11.602;2022-08-19T09:36:53;8.40;;;7.70;;
990;SDS011;484;48.128;11.602;2022-08-19T09:39:42;10.53;;;9.50;;
990;SDS011;484;48.128;11.602;2022-08-19T09:42:27;18.47;;;14.80;;
990;SDS011;484;48.128;11.602;2022-08-19T09:45:14;8.93;;;7.43;;
990;SDS011;484;48.128;11.602;2022-08-19T09:48:01;10.50;;;9.47;;
990;SDS011;484;48.128;11.602;2022-08-19T09:50:46;10.20;;;9.10;;
990;SDS011;484;48.128;11.602;2022-08-19T09:53:35;10.73;;;9.40;;
990;SDS011;484;48.128;11.602;2022-08-19T09:56:21;7.57;;;6.87;;
990;SDS011;484;48.128;11.602;2022-08-19T09:59:07;9.97;;;8.90;;
990;SDS011;484;48.128;11.602;2022-08-19T10:01:54;9.67;;;7.30;;
990;SDS011;484;48.128;11.602;2022-08-19T10:04:40;10.13;;;7.80;;
990;SDS011;484;48.128;11.602;2022-08-19T10:07:43;8.60;;;7.80;;
990;SDS011;484;48.128;11.602;2022-08-19T10:10:29;9.10;;;8.17;;
990;SDS011;484;48.128;11.602;2022-08-19T10:13:15;7.90;;;7.10;;
990;SDS011;484;48.128;11.602;2022-08-19T10:16:03;10.03;;;7.70;;
990;SDS011;484;48.128;11.602;2022-08-19T10:18:50;9.30;;;7.27;;
990;SDS011;484;48.128;11.602;2022-08-19T10:21:36;8.13;;;7.33;;
990;SDS011;484;48.128;11.602;2022-08-19T10:24:22;9.30;;;8.00;;
990;SDS011;484;48.128;11.602;2022-08-19T10:27:09;8.90;;;8.10;;
990;SDS011;484;48.128;11.602;2022-08-19T10:29:56;7.37;;;6.67;;
990;SDS011;484;48.128;11.602;2022-08-19T10:32:41;6.30;;;5.70;;
990;SDS011;484;48.128;11.602;2022-08-19T10:35:31;7.20;;;6.23;;
990;SDS011;484;48.128;11.602;2022-08-19T10:38:16;8.10;;;7.23;;
990;SDS011;484;48.128;11.602;2022-08-19T10:41:08;6.23;;;5.70;;
990;SDS011;484;48.128;11.602;2022-08-19T10:43:55;6.40;;;5.83;;
990;SDS011;484;48.128;11.602;2022-08-19T10:46:42;6.47;;;5.93;;
990;SDS011;484;48.128;11.602;2022-08-19T10:49:28;6.57;;;5.93;;
990;SDS011;484;48.128;11.602;2022-08-19T10:52:15;8.23;;;7.37;;
990;SDS011;484;48.128;11.602;2022-08-19T10:55:18;6.60;;;6.00;;
990;SDS011;484;48.128;11.602;2022-08-19T10:58:22;10.93;;;7.67;;
990;SDS011;484;48.128;11.602;2022-08-19T11:01:09;8.20;;;7.50;;
990;SDS011;484;48.128;11.602;2022-08-19T11:03:55;7.57;;;6.97;;
990;SDS011;484;48.128;11.602;2022-08-19T11:06:40;6.03;;;5.53;;
990;SDS011;484;48.128;11.602;2022-08-19T11:09:28;6.60;;;6.00;;
990;SDS011;484;48.128;11.602;2022-08-19T11:12:13;7.07;;;6.47;;
990;SDS011;484;48.128;11.602;2022-08-19T11:14:59;6.47;;;5.97;;
990;SDS011;484;48.128;11.602;2022-08-19T11:17:45;5.67;;;5.10;;
990;SDS011;484;48.128;11.602;2022-08-19T11:20:30;5.90;;;5.50;;
990;SDS011;484;48.128;11.602;2022-08-19T11:23:15;5.50;;;5.00;;
990;SDS011;484;48.128;11.602;2022-08-19T11:26:02;7.20;;;5.40;;
990;SDS011;484;48.128;11.602;2022-08-19T11:28:48;6.10;;;5.60;;
990;SDS011;484;48.128;11.602;2022-08-19T11:31:35;4.43;;;4.13;;
990;SDS011;484;48.128;11.602;2022-08-19T11:34:23;6.07;;;5.57;;
990;SDS011;484;48.128;11.602;2022-08-19T11:37:11;6.60;;;5.93;;
990;SDS011;484;48.128;11.602;2022-08-19T11:39:56;6.10;;;5.60;;
990;SDS011;484;48.128;11.602;2022-08-19T11:42:43;6.53;;;5.93;;
990;SDS011;484;48.128;11.602;2022-08-19T11:45:40;11.60;;;10.50;;
990;SDS011;484;48.128;11.602;2022-08-19T11:48:25;6.83;;;6.23;;
990;SDS011;484;48.128;11.602;2022-08-19T11:51:15;5.67;;;5.17;;
990;SDS011;484;48.128;11.602;2022-08-19T11:54:03;5.07;;;4.60;;
990;SDS011;484;48.128;11.602;2022-08-19T11:56:50;4.67;;;4.27;;
990;SDS011;484;48.128;11.602;2022-08-19T11:59:36;4.60;;;4.20;;
990;SDS011;484;48.128;11.602;2022-08-19T12:02:22;4.77;;;4.37;;
990;SDS011;484;48.128;11.602;2022-08-19T12:05:07;3.67;;;3.30;;
990;SDS011;484;48.128;11.602;2022-08-19T12:07:53;2.27;;;2.10;;
990;SDS011;484;48.128;11.602;2022-08-19T12:10:40;4.10;;;2.77;;
990;SDS011;484;48.128;11.602;2022-08-19T12:13:25;2.87;;;2.67;;
990;SDS011;484;48.128;11.602;2022-08-19T12:16:13;2.30;;;2.10;;
990;SDS011;484;48.128;11.602;2022-08-19T12:19:00;1.70;;;1.60;;
990;SDS011;484;48.128;11.602;2022-08-19T12:21:47;1.77;;;1.50;;
990;SDS011;484;48.128;11.602;2022-08-19T12:24:33;1.80;;;1.70;;
990;SDS011;484;48.128;11.602;2022-08-19T12:27:19;1.87;;;1.77;;
990;SDS011;484;48.128;11.602;2022-08-19T12:30:04;1.50;;;1.40;;
990;SDS011;484;48.128;11.602;2022-08-19T12:32:53;1.60;;;1.50;;
990;SDS011;484;48.128;11.602;2022-08-19T12:35:39;1.10;;;1.10;;
990;SDS011;484;48.128;11.602;2022-08-19T12:38:25;1.67;;;1.57;;
990;SDS011;484;48.128;11.602;2022-08-19T12:41:11;1.73;;;1.63;;
990;SDS011;484;48.128;11.602;2022-08-19T12:43:59;1.57;;;1.37;;
990;SDS011;484;48.128;11.602;2022-08-19T12:46:44;1.40;;;1.30;;
990;SDS011;484;48.128;11.602;2022-08-19T12:49:31;1.83;;;1.37;;
990;SDS011;484;48.128;11.602;2022-08-19T12:52:17;1.37;;;1.27;;
990;SDS011;484;48.128;11.602;2022-08-19T12:55:06;1.20;;;1.20;;
990;SDS011;484;48.128;11.602;2022-08-19T12:57:52;2.17;;;2.07;;
990;SDS011;484;48.128;11.602;2022-08-19T13:00:38;1.40;;;1.30;;
990;SDS011;484;48.128;11.602;2022-08-19T13:03:24;2.83;;;1.53;;
990;SDS011;484;48.128;11.602;2022-08-19T13:06:14;1.53;;;1.43;;
990;SDS011;484;48.128;11.602;2022-08-19T13:09:01;1.30;;;1.20;;
990;SDS011;484;48.128;11.602;2022-08-19T13:11:47;2.03;;;1.60;;
990;SDS011;484;48.128;11.602;2022-08-19T13:14:33;2.23;;;2.13;;
990;SDS011;484;48.128;11.602;2022-08-19T13:17:19;1.93;;;1.83;;
990;SDS011;484;48.128;11.602;2022-08-19T13:20:05;1.83;;;1.73;;
990;SDS011;484;48.128;11.602;2022-08-19T13:22:53;2.20;;;1.33;;
990;SDS011;484;48.128;11.602;2022-08-19T13:25:40;1.33;;;1.23;;
990;SDS011;484;48.128;11.602;2022-08-19T13:28:26;1.67;;;1.37;;
990;SDS011;484;48.128;11.602;2022-08-19T13:31:31;1.60;;;1.50;;
990;SDS011;484;48.128;11.602;2022-08-19T13:34:36;2.20;;;1.50;;
990;SDS011;484;48.128;11.602;2022-08-19T13:37:21;2.60;;;2.40;;
990;SDS011;484;48.128;11.602;2022-08-19T13:40:15;1.60;;;1.50;;
990;SDS011;484;48.128;11.602;2022-08-19T13:43:02;1.23;;;1.13;;
990;SDS011;484;48.128;11.602;2022-08-19T13:45:48;1.50;;;1.40;;
990;SDS011;484;48.128;11.602;2022-08-19T13:48:36;1.60;;;1.50;;
990;SDS011;484;48.128;11.602;2022-08-19T13:51:22;1.57;;;1.47;;
990;SDS011;484;48.128;11.602;2022-08-19T13:54:07;1.73;;;1.53;;
990;SDS011;484;48.128;11.602;2022-08-19T13:56:54;1.53;;;1.47;;
990;SDS011;484;48.128;11.602;2022-08-19T13:59:40;1.30;;;1.30;;
990;SDS011;484;48.128;11.602;2022-08-19T14:02:25;1.60;;;1.50;;
990;SDS011;484;48.128;11.602;2022-08-19T14:05:12;1.90;;;1.80;;
990;SDS011;484;48.128;11.602;2022-08-19T14:07:59;1.60;;;1.50;;
990;SDS011;484;48.128;11.602;2022-08-19T14:10:45;2.20;;;1.60;;
990;SDS011;484;48.128;11.602;2022-08-19T14:13:33;1.90;;;1.80;;
990;SDS011;484;48.128;11.602;2022-08-19T14:16:18;2.30;;;2.20;;
990;SDS011;484;48.128;11.602;2022-08-19T14:19:05;2.40;;;1.97;;
990;SDS011;484;48.128;11.602;2022-08-19T14:21:51;2.00;;;1.90;;
990;SDS011;484;48.128;11.602;2022-08-19T14:24:37;2.53;;;2.33;;
990;SDS011;484;48.128;11.602;2022-08-19T14:27:24;2.50;;;2.10;;
990;SDS011;484;48.128;11.602;2022-08-19T14:30:12;2.00;;;1.83;;
990;SDS011;484;48.128;11.602;2022-08-19T14:33:00;1.70;;;1.60;;
990;SDS011;484;48.128;11.602;2022-08-19T14:35:46;1.83;;;1.70;;
990;SDS011;484;48.128;11.602;2022-08-19T14:38:31;2.60;;;2.50;;
990;SDS011;484;48.128;11.602;2022-08-19T14:41:18;2.00;;;1.90;;
990;SDS011;484;48.128;11.602;2022-08-19T14:44:04;1.77;;;1.67;;
990;SDS011;484;48.128;11.602;2022-08-19T14:46:51;2.23;;;1.80;;
990;SDS011;484;48.128;11.602;2022-08-19T14:49:37;2.20;;;2.10;;
990;SDS011;484;48.128;11.602;2022-08-19T14:52:23;2.40;;;2.20;;
990;SDS011;484;48.128;11.602;2022-08-19T14:55:08;2.20;;;2.10;;
990;SDS011;484;48.128;11.602;2022-08-19T14:57:54;3.23;;;3.03;;
990;SDS011;484;48.128;11.602;2022-08-19T15:00:39;1.80;;;1.70;;
990;SDS011;484;48.128;11.602;2022-08-19T15:03:26;1.70;;;1.60;;
990;SDS011;484;48.128;11.602;2022-08-19T15:06:12;1.07;;;1.07;;
990;SDS011;484;48.128;11.602;2022-08-19T15:08:57;1.70;;;1.60;;
990;SDS011;484;48.128;11.602;2022-08-19T15:11:42;1.63;;;1.53;;
990;SDS011;484;48.128;11.602;2022-08-19T15:14:28;2.20;;;2.10;;
990;SDS011;484;48.128;11.602;2022-08-19T15:17:18;2.43;;;2.03;;
990;SDS011;484;48.128;11.602;2022-08-19T15:20:05;1.90;;;1.80;;
990;SDS011;484;48.128;11.602;2022-08-19T15:22:51;2.27;;;2.17;;
990;SDS011;484;48.128;11.602;2022-08-19T15:25:37;1.87;;;1.77;;
990;SDS011;484;48.128;11.602;2022-08-19T15:28:22;3.43;;;3.13;;
990;SDS011;484;48.128;11.602;2022-08-19T15:31:08;1.97;;;1.87;;
990;SDS011;484;48.128;11.602;2022-08-19T15:33:55;1.93;;;1.83;;
990;SDS011;484;48.128;11.602;2022-08-19T15:36:42;2.90;;;2.50;;
990;SDS011;484;48.128;11.602;2022-08-19T15:39:27;5.43;;;4.40;;
990;SDS011;484;48.128;11.602;2022-08-19T15:42:13;8.23;;;4.10;;
990;SDS011;484;48.128;11.602;2022-08-19T15:44:59;3.70;;;3.40;;
990;SDS011;484;48.128;11.602;2022-08-19T15:47:44;4.03;;;3.33;;
990;SDS011;484;48.128;11.602;2022-08-19T15:50:30;4.20;;;3.73;;
990;SDS011;484;48.128;11.602;2022-08-19T15:53:17;4.17;;;3.87;;
990;SDS011;484;48.128;11.602;2022-08-19T15:56:02;3.40;;;3.20;;
990;SDS011;484;48.128;11.602;2022-08-19T15:58:48;3.63;;;3.37;;
990;SDS011;484;48.128;11.602;2022-08-19T16:01:51;3.53;;;3.23;;
990;SDS011;484;48.128;11.602;2022-08-19T16:04:54;4.40;;;4.10;;
990;SDS011;484;48.128;11.602;2022-08-19T16:07:58;4.43;;;3.90;;
990;SDS011;484;48.128;11.602;2022-08-19T16:10:44;4.60;;;4.20;;
990;SDS011;484;48.128;11.602;2022-08-19T16:13:29;4.37;;;3.97;;
990;SDS011;484;48.128;11.602;2022-08-19T16:16:15;4.47;;;4.10;;
990;SDS011;484;48.128;11.602;2022-08-19T16:19:00;3.87;;;3.57;;
990;SDS011;484;48.128;11.602;2022-08-19T16:21:49;5.60;;;5.07;;
990;SDS011;484;48.128;11.602;2022-08-19T16:24:36;4.47;;;4.10;;
990;SDS011;484;48.128;11.602;2022-08-19T16:27:23;6.93;;;4.40;;
990;SDS011;484;48.128;11.602;2022-08-19T16:30:08;4.40;;;4.10;;
990;SDS011;484;48.128;11.602;2022-08-19T16:32:54;4.10;;;3.70;;
990;SDS011;484;48.128;11.602;2022-08-19T16:35:39;2.93;;;2.73;;
990;SDS011;484;48.128;11.602;2022-08-19T16:38:25;3.30;;;3.10;;
990;SDS011;484;48.128;11.602;2022-08-19T16:41:11;2.80;;;2.60;;
990;SDS011;484;48.128;11.602;2022-08-19T16:43:58;2.80;;;2.60;;
990;SDS011;484;48.128;11.602;2022-08-19T16:46:44;2.77;;;2.57;;
990;SDS011;484;48.128;11.602;2022-08-19T16:49:29;2.27;;;2.17;;
990;SDS011;484;48.128;11.602;2022-08-19T16:52:15;2.07;;;1.97;;
990;SDS011;484;48.128;11.602;2022-08-19T16:55:02;2.70;;;2.60;;
990;SDS011;484;48.128;11.602;2022-08-19T16:57:48;3.47;;;3.17;;
990;SDS011;484;48.128;11.602;2022-08-19T17:00:35;3.10;;;2.90;;
990;SDS011;484;48.128;11.602;2022-08-19T17:03:21;2.43;;;2.23;;
990;SDS011;484;48.128;11.602;2022-08-19T17:06:08;3.53;;;3.13;;
990;SDS011;484;48.128;11.602;2022-08-19T17:08:57;2.83;;;2.63;;
990;SDS011;484;48.128;11.602;2022-08-19T17:11:44;3.47;;;3.17;;
990;SDS011;484;48.128;11.602;2022-08-19T17:14:30;5.57;;;3.03;;
990;SDS011;484;48.128;11.602;2022-08-19T17:17:16;5.67;;;3.63;;
990;SDS011;484;48.128;11.602;2022-08-19T17:20:02;3.37;;;3.07;;
990;SDS011;484;48.128;11.602;2022-08-19T17:22:48;3.60;;;3.40;;
990;SDS011;484;48.128;11.602;2022-08-19T17:25:34;3.10;;;2.83;;
990;SDS011;484;48.128;11.602;2022-08-19T17:28:22;3.07;;;2.87;;
990;SDS011;484;48.128;11.602;2022-08-19T17:31:09;2.50;;;2.40;;
990;SDS011;484;48.128;11.602;2022-08-19T17:33:55;2.33;;;2.23;;